createdAt,value
2023-01-17T00:02:21.223Z,0.30
2023-01-17T00:05:06.864Z,0.30
2023-01-17T00:07:52.384Z,0.30
2023-01-17T00:10:22.236Z,0.30
2023-01-17T00:12:52.347Z,0.30
2023-01-17T00:15:20.473Z,0.30
2023-01-17T00:17:47.925Z,0.30
2023-01-17T00:20:35.446Z,0.30
2023-01-17T00:23:25.521Z,0.30
2023-01-17T00:26:05.160Z,0.30
2023-01-17T00:28:38.320Z,0.30
2023-01-17T00:31:07.302Z,0.30
2023-01-17T00:33:34.770Z,0.30
2023-01-17T00:36:03.674Z,0.30
2023-01-17T00:38:33.334Z,0.20
2023-01-17T00:41:12.467Z,0.20
2023-01-17T00:43:58.407Z,0.20
2023-01-17T00:46:44.690Z,0.20
2023-01-17T00:49:30.802Z,0.20
2023-01-17T00:52:16.719Z,0.10
2023-01-17T00:55:02.374Z,0.10
2023-01-17T00:57:48.571Z,0.10
2023-01-17T01:00:36.845Z,0.10
2023-01-17T01:03:28.274Z,0.10
2023-01-17T01:06:14.557Z,0.10
2023-01-17T01:09:00.158Z,0.10
2023-01-17T01:11:45.957Z,0.10
2023-01-17T01:14:31.653Z,0.00
2023-01-17T01:17:19.844Z,0.00
2023-01-17T01:20:05.648Z,0.00
2023-01-17T01:22:51.112Z,0.00
2023-01-17T01:25:36.830Z,0.00
2023-01-17T01:28:31.454Z,0.00
2023-01-17T01:31:24.698Z,0.00
2023-01-17T01:33:53.547Z,0.00
2023-01-17T01:36:21.421Z,0.00
2023-01-17T01:38:50.319Z,0.00
2023-01-17T01:41:17.850Z,0.00
2023-01-17T01:43:48.514Z,0.00
2023-01-17T01:46:20.378Z,0.00
2023-01-17T01:48:57.428Z,0.00
2023-01-17T01:51:38.859Z,0.00
2023-01-17T01:54:19.656Z,0.00
2023-01-17T01:56:50.287Z,0.00
2023-01-17T01:59:20.306Z,0.00
2023-01-17T02:01:50.028Z,0.00
2023-01-17T02:04:19.768Z,0.00
2023-01-17T02:07:04.135Z,0.00
2023-01-17T02:09:31.361Z,0.00
2023-01-17T02:11:58.797Z,0.00
2023-01-17T02:14:26.361Z,0.00
2023-01-17T02:17:23.050Z,0.00
2023-01-17T02:20:08.606Z,0.00
2023-01-17T02:22:50.909Z,0.00
2023-01-17T02:25:27.015Z,0.00
2023-01-17T02:28:07.534Z,0.00
2023-01-17T02:30:39.597Z,0.00
2023-01-17T02:33:20.573Z,0.00
2023-01-17T02:35:58.229Z,0.00
2023-01-17T02:38:50.529Z,0.00
2023-01-17T02:41:41.625Z,0.00
2023-01-17T02:44:10.789Z,0.00
2023-01-17T02:46:55.869Z,0.00
2023-01-17T02:49:27.065Z,0.00
2023-01-17T02:52:07.310Z,0.00
2023-01-17T02:55:12.024Z,0.00
2023-01-17T02:57:59.521Z,0.10
2023-01-17T03:00:45.193Z,0.10
2023-01-17T03:03:15.207Z,0.10
2023-01-17T03:05:57.566Z,0.10
2023-01-17T03:08:25.597Z,0.10
2023-01-17T03:10:53.171Z,0.10
2023-01-17T03:13:20.360Z,0.10
2023-01-17T03:15:47.886Z,0.10
2023-01-17T03:18:16.482Z,0.10
2023-01-17T03:20:43.836Z,0.10
2023-01-17T03:23:11.179Z,0.00
2023-01-17T03:25:38.374Z,0.00
2023-01-17T03:28:05.629Z,0.00
2023-01-17T03:30:32.860Z,0.00
2023-01-17T03:32:59.984Z,0.00
2023-01-17T03:35:28.437Z,0.00
2023-01-17T03:37:55.757Z,0.00
2023-01-17T03:40:23.200Z,0.00
2023-01-17T03:42:50.423Z,0.00
2023-01-17T03:45:18.062Z,0.00
2023-01-17T03:47:45.175Z,0.00
2023-01-17T03:50:13.558Z,0.00
2023-01-17T03:52:40.915Z,0.00
2023-01-17T03:55:08.352Z,0.00
2023-01-17T03:57:35.551Z,0.10
2023-01-17T04:00:02.770Z,0.10
2023-01-17T04:02:34.220Z,0.10
2023-01-17T04:05:01.493Z,0.10
2023-01-17T04:07:28.764Z,0.10
2023-01-17T04:09:55.953Z,0.10
2023-01-17T04:12:23.262Z,0.10
2023-01-17T04:14:50.407Z,0.10
2023-01-17T04:17:19.850Z,0.10
2023-01-17T04:19:47.665Z,0.00
2023-01-17T04:22:14.869Z,0.00
2023-01-17T04:24:42.230Z,0.00
2023-01-17T04:27:14.242Z,0.00
2023-01-17T04:29:41.586Z,0.00
2023-01-17T04:32:08.815Z,0.00
2023-01-17T04:34:36.041Z,0.00
2023-01-17T04:37:03.217Z,0.00
2023-01-17T04:39:30.448Z,0.00
2023-01-17T04:41:57.599Z,0.00
2023-01-17T04:44:24.878Z,0.00
2023-01-17T04:46:51.991Z,0.00
2023-01-17T04:49:19.240Z,0.00
2023-01-17T04:51:46.703Z,0.00
2023-01-17T04:54:13.917Z,0.00
2023-01-17T04:56:41.139Z,0.00
2023-01-17T04:59:08.233Z,0.00
2023-01-17T05:01:35.461Z,0.00
2023-01-17T05:04:02.839Z,0.00
2023-01-17T05:06:30.031Z,0.00
2023-01-17T05:08:57.188Z,0.00
2023-01-17T05:11:24.305Z,0.00
2023-01-17T05:13:51.453Z,0.00
2023-01-17T05:16:19.645Z,0.00
2023-01-17T05:18:46.829Z,0.00
2023-01-17T05:21:13.941Z,0.00
2023-01-17T05:23:42.725Z,0.00
2023-01-17T05:26:09.885Z,0.00
2023-01-17T05:28:37.048Z,0.00
2023-01-17T05:31:04.434Z,0.00
2023-01-17T05:33:31.784Z,-0.10
2023-01-17T05:35:59.094Z,-0.10
2023-01-17T05:38:26.127Z,-0.10
2023-01-17T05:40:53.223Z,-0.10
2023-01-17T05:43:22.051Z,-0.10
2023-01-17T05:45:50.107Z,-0.10
2023-01-17T05:48:17.254Z,-0.10
2023-01-17T05:50:44.684Z,0.00
2023-01-17T05:53:14.288Z,0.00
2023-01-17T05:55:42.523Z,0.00
2023-01-17T05:58:19.883Z,-0.10
2023-01-17T06:00:47.946Z,0.00
2023-01-17T06:03:15.599Z,0.00
2023-01-17T06:05:43.372Z,0.00
2023-01-17T06:08:11.133Z,0.00
2023-01-17T06:10:38.516Z,0.00
2023-01-17T06:13:08.612Z,0.00
2023-01-17T06:15:37.413Z,0.00
2023-01-17T06:18:06.572Z,0.00
2023-01-17T06:20:34.227Z,0.00
2023-01-17T06:23:04.441Z,0.00
2023-01-17T06:25:41.084Z,0.00
2023-01-17T06:28:08.490Z,0.00
2023-01-17T06:30:36.398Z,0.00
2023-01-17T06:33:04.645Z,-0.10
2023-01-17T06:35:32.184Z,0.00
2023-01-17T06:38:00.631Z,-0.10
2023-01-17T06:40:29.297Z,-0.10
2023-01-17T06:43:04.086Z,-0.10
2023-01-17T06:45:32.682Z,-0.10
2023-01-17T06:48:01.424Z,-0.10
2023-01-17T06:50:28.653Z,-0.10
2023-01-17T06:53:04.478Z,-0.10
2023-01-17T06:55:34.000Z,-0.10
2023-01-17T06:58:03.204Z,-0.10
2023-01-17T07:00:31.950Z,-0.10
2023-01-17T07:02:59.198Z,-0.10
2023-01-17T07:05:28.563Z,-0.10
2023-01-17T07:07:56.068Z,-0.10
2023-01-17T07:10:23.719Z,-0.10
2023-01-17T07:12:51.644Z,-0.10
2023-01-17T07:15:18.778Z,-0.10
2023-01-17T07:17:45.812Z,-0.10
2023-01-17T07:20:13.719Z,-0.10
2023-01-17T07:22:44.482Z,-0.10
2023-01-17T07:25:11.797Z,-0.10
2023-01-17T07:27:38.978Z,-0.10
2023-01-17T07:30:06.896Z,0.00
2023-01-17T07:32:34.221Z,0.00
2023-01-17T07:35:01.531Z,0.00
2023-01-17T07:37:28.690Z,0.00
2023-01-17T07:39:55.930Z,0.00
2023-01-17T07:42:24.426Z,0.00
2023-01-17T07:44:51.653Z,0.00
2023-01-17T07:47:20.016Z,0.00
2023-01-17T07:49:47.210Z,0.10
2023-01-17T07:52:15.073Z,0.10
2023-01-17T07:54:42.979Z,0.10
2023-01-17T07:57:12.756Z,0.10
2023-01-17T07:59:39.983Z,0.10
2023-01-17T08:02:15.168Z,0.00
2023-01-17T08:04:42.351Z,0.00
2023-01-17T08:07:09.555Z,0.00
2023-01-17T08:09:36.899Z,0.00
2023-01-17T08:12:05.919Z,0.00
2023-01-17T08:14:33.325Z,-0.10
2023-01-17T08:17:14.027Z,-0.10
2023-01-17T08:19:41.244Z,-0.10
2023-01-17T08:22:08.592Z,-0.10
2023-01-17T08:24:35.935Z,-0.20
2023-01-17T08:27:03.166Z,-0.20
2023-01-17T08:29:30.514Z,-0.20
2023-01-17T08:31:57.788Z,-0.20
2023-01-17T08:34:25.872Z,-0.30
2023-01-17T08:36:54.073Z,-0.30
2023-01-17T08:39:22.217Z,-0.30
2023-01-17T08:41:49.575Z,-0.40
2023-01-17T08:44:16.894Z,-0.40
2023-01-17T08:46:44.359Z,-0.40
2023-01-17T08:49:12.403Z,-0.30
2023-01-17T08:51:40.289Z,-0.30
2023-01-17T08:54:07.698Z,-0.30
2023-01-17T08:56:35.650Z,-0.30
2023-01-17T08:59:03.242Z,-0.20
2023-01-17T09:01:30.871Z,-0.20
2023-01-17T09:03:58.264Z,-0.20
2023-01-17T09:06:25.447Z,-0.10
2023-01-17T09:08:54.171Z,-0.10
2023-01-17T09:11:21.468Z,-0.10
2023-01-17T09:13:48.612Z,-0.10
2023-01-17T09:16:15.898Z,0.00
2023-01-17T09:18:43.159Z,0.00
2023-01-17T09:21:15.792Z,0.00
2023-01-17T09:23:43.660Z,0.00
2023-01-17T09:26:21.091Z,0.10
2023-01-17T09:28:48.761Z,0.10
2023-01-17T09:31:17.650Z,0.20
2023-01-17T09:33:45.200Z,0.20
2023-01-17T09:36:12.817Z,0.20
2023-01-17T09:38:40.532Z,0.20
2023-01-17T09:41:27.742Z,0.30
2023-01-17T09:44:07.633Z,0.30
2023-01-17T09:46:42.328Z,0.30
2023-01-17T09:49:32.211Z,0.40
2023-01-17T09:52:00.156Z,0.40
2023-01-17T09:54:37.951Z,0.50
2023-01-17T09:57:32.602Z,0.50
2023-01-17T10:00:26.192Z,0.60
2023-01-17T10:02:56.688Z,0.60
2023-01-17T10:05:37.602Z,0.70
2023-01-17T10:08:20.179Z,0.70
2023-01-17T10:11:02.864Z,0.80
2023-01-17T10:13:40.168Z,0.80
2023-01-17T10:16:52.622Z,0.90
2023-01-17T10:20:00.683Z,1.00
2023-01-17T10:23:05.171Z,1.00
2023-01-17T10:25:44.058Z,1.10
2023-01-17T10:28:20.749Z,1.20
2023-01-17T10:30:50.700Z,1.30
2023-01-17T10:33:22.298Z,1.30
2023-01-17T10:36:08.296Z,1.40
2023-01-17T10:38:38.817Z,1.50
2023-01-17T10:41:27.447Z,1.50
2023-01-17T10:44:21.075Z,1.60
2023-01-17T10:47:10.422Z,1.60
2023-01-17T10:49:47.820Z,1.60
2023-01-17T10:52:39.209Z,1.70
2023-01-17T10:55:47.151Z,1.60
2023-01-17T10:58:14.943Z,1.60
2023-01-17T11:01:03.898Z,1.60
2023-01-17T11:03:33.459Z,1.50
2023-01-17T11:06:19.557Z,1.50
2023-01-17T11:08:51.783Z,1.50
2023-01-17T11:11:22.290Z,1.40
2023-01-17T11:13:51.127Z,1.40
2023-01-17T11:16:26.703Z,1.40
2023-01-17T11:19:26.044Z,1.40
2023-01-17T11:21:57.802Z,1.40
2023-01-17T11:25:00.825Z,1.40
2023-01-17T11:27:31.101Z,1.30
2023-01-17T11:30:16.762Z,1.40
2023-01-17T11:32:58.541Z,1.30
2023-01-17T11:35:30.527Z,1.30
2023-01-17T11:38:14.449Z,1.30
2023-01-17T11:40:43.858Z,1.30
2023-01-17T11:43:30.560Z,1.20
2023-01-17T11:46:03.023Z,1.20
2023-01-17T11:48:36.518Z,1.30
2023-01-17T11:51:11.408Z,1.30
2023-01-17T11:53:41.060Z,1.30
2023-01-17T11:56:18.498Z,1.40
2023-01-17T11:58:47.325Z,1.40
2023-01-17T12:01:47.555Z,1.50
2023-01-17T12:04:27.627Z,1.60
2023-01-17T12:07:09.871Z,1.70
2023-01-17T12:10:07.898Z,1.80
2023-01-17T12:13:02.670Z,1.90
2023-01-17T12:15:58.053Z,2.00
2023-01-17T12:18:51.310Z,2.20
2023-01-17T12:21:37.960Z,2.30
2023-01-17T12:24:46.483Z,2.30
2023-01-17T12:27:42.716Z,2.40
2023-01-17T12:30:16.516Z,2.50
2023-01-17T12:33:19.322Z,2.60
2023-01-17T12:35:57.969Z,2.60
2023-01-17T12:38:32.793Z,2.70
2023-01-17T12:41:11.940Z,2.60
2023-01-17T12:43:43.864Z,2.60
2023-01-17T12:46:21.406Z,2.50
2023-01-17T12:48:53.041Z,2.50
2023-01-17T12:51:31.798Z,2.50
2023-01-17T12:54:02.871Z,2.50
2023-01-17T12:56:54.431Z,2.60
2023-01-17T12:59:39.753Z,2.60
2023-01-17T13:02:34.607Z,2.60
2023-01-17T13:05:15.378Z,2.50
2023-01-17T13:08:01.481Z,2.50
2023-01-17T13:10:45.012Z,2.50
2023-01-17T13:13:24.216Z,2.50
2023-01-17T13:16:29.222Z,2.50
2023-01-17T13:19:01.872Z,2.50
2023-01-17T13:21:30.547Z,2.60
2023-01-17T13:23:59.216Z,2.50
2023-01-17T13:26:32.289Z,2.50
2023-01-17T13:29:02.675Z,2.50
2023-01-17T13:31:33.026Z,2.50
2023-01-17T13:34:23.265Z,2.50
2023-01-17T13:36:59.724Z,2.50
2023-01-17T13:39:40.080Z,2.50
2023-01-17T13:42:24.015Z,2.40
2023-01-17T13:44:51.634Z,2.40
2023-01-17T13:47:18.695Z,2.40
2023-01-17T13:49:54.030Z,2.40
2023-01-17T13:52:21.177Z,2.40
2023-01-17T13:54:52.757Z,2.40
2023-01-17T13:57:29.199Z,2.40
2023-01-17T13:59:58.705Z,2.40
2023-01-17T14:02:32.091Z,2.40
2023-01-17T14:05:10.850Z,2.40
2023-01-17T14:08:06.208Z,2.40
2023-01-17T14:10:45.223Z,2.40
2023-01-17T14:13:45.027Z,2.40
2023-01-17T14:16:21.489Z,2.40
2023-01-17T14:18:49.833Z,2.40
2023-01-17T14:21:26.034Z,2.40
2023-01-17T14:24:11.964Z,2.40
2023-01-17T14:27:14.878Z,2.40
2023-01-17T14:30:01.708Z,2.50
2023-01-17T14:32:33.229Z,2.40
2023-01-17T14:35:00.473Z,2.40
2023-01-17T14:37:38.567Z,2.40
2023-01-17T14:40:30.755Z,2.40
2023-01-17T14:43:04.108Z,2.40
2023-01-17T14:45:34.044Z,2.50
2023-01-17T14:48:22.848Z,2.50
2023-01-17T14:50:53.207Z,2.60
2023-01-17T14:53:28.439Z,2.50
2023-01-17T14:56:02.082Z,2.50
2023-01-17T14:58:32.216Z,2.50
2023-01-17T15:01:14.350Z,2.50
2023-01-17T15:03:55.062Z,2.50
2023-01-17T15:06:25.377Z,2.50
2023-01-17T15:08:54.294Z,2.40
2023-01-17T15:11:27.563Z,2.40
2023-01-17T15:13:57.598Z,2.40
2023-01-17T15:16:33.415Z,2.40
2023-01-17T15:19:01.278Z,2.40
2023-01-17T15:21:42.641Z,2.40
2023-01-17T15:24:16.664Z,2.40
2023-01-17T15:26:44.332Z,2.40
2023-01-17T15:29:20.284Z,2.40
2023-01-17T15:31:49.735Z,2.40
2023-01-17T15:34:26.939Z,2.40
2023-01-17T15:36:58.208Z,2.40
2023-01-17T15:39:31.387Z,2.30
2023-01-17T15:42:05.149Z,2.30
2023-01-17T15:44:49.231Z,2.30
2023-01-17T15:47:30.574Z,2.30
2023-01-17T15:49:58.860Z,2.30
2023-01-17T15:52:26.504Z,2.30
2023-01-17T15:55:14.117Z,2.30
2023-01-17T15:57:47.566Z,2.20
2023-01-17T16:00:21.656Z,2.20
2023-01-17T16:02:55.521Z,2.20
2023-01-17T16:05:27.735Z,2.20
2023-01-17T16:08:04.626Z,2.20
2023-01-17T16:10:39.289Z,2.20
2023-01-17T16:13:09.278Z,2.10
2023-01-17T16:15:42.766Z,2.10
2023-01-17T16:18:24.087Z,2.10
2023-01-17T16:20:59.871Z,2.10
2023-01-17T16:23:28.069Z,2.10
2023-01-17T16:25:55.370Z,2.10
2023-01-17T16:28:22.973Z,2.10
2023-01-17T16:30:50.350Z,2.00
2023-01-17T16:33:17.652Z,2.00
2023-01-17T16:35:44.807Z,2.00
2023-01-17T16:38:17.873Z,2.00
2023-01-17T16:40:46.598Z,2.00
2023-01-17T16:43:16.079Z,2.00
2023-01-17T16:45:48.455Z,2.00
2023-01-17T16:48:18.289Z,2.00
2023-01-17T16:50:50.603Z,2.00
2023-01-17T16:53:24.664Z,2.00
2023-01-17T16:55:55.468Z,2.00
2023-01-17T16:58:22.665Z,2.00
2023-01-17T17:00:49.946Z,2.00
2023-01-17T17:03:19.761Z,2.00
2023-01-17T17:05:56.261Z,2.00
2023-01-17T17:08:24.389Z,2.00
2023-01-17T17:10:52.039Z,2.00
2023-01-17T17:13:19.364Z,2.00
2023-01-17T17:15:46.880Z,2.00
2023-01-17T17:18:15.842Z,2.10
2023-01-17T17:20:43.964Z,2.10
2023-01-17T17:23:11.734Z,2.10
2023-01-17T17:25:39.172Z,2.10
2023-01-17T17:28:06.785Z,2.20
2023-01-17T17:30:34.615Z,2.20
2023-01-17T17:33:04.887Z,2.30
2023-01-17T17:35:34.960Z,2.30
2023-01-17T17:38:02.262Z,2.30
2023-01-17T17:40:29.369Z,2.40
2023-01-17T17:42:56.573Z,2.40
2023-01-17T17:45:24.068Z,2.40
2023-01-17T17:47:51.535Z,2.40
2023-01-17T17:50:18.797Z,2.50
2023-01-17T17:52:47.935Z,2.50
2023-01-17T17:55:19.146Z,2.50
2023-01-17T17:57:46.498Z,2.60
2023-01-17T18:00:14.260Z,2.60
2023-01-17T18:02:41.553Z,2.60
2023-01-17T18:05:09.140Z,2.60
2023-01-17T18:07:36.318Z,2.70
2023-01-17T18:10:04.002Z,2.60
2023-01-17T18:12:31.237Z,2.60
2023-01-17T18:14:58.333Z,2.60
2023-01-17T18:17:25.575Z,2.60
2023-01-17T18:19:52.709Z,2.60
2023-01-17T18:22:19.906Z,2.50
2023-01-17T18:24:47.011Z,2.60
2023-01-17T18:27:14.329Z,2.60
2023-01-17T18:29:41.509Z,2.50
2023-01-17T18:32:08.849Z,2.50
2023-01-17T18:34:39.345Z,2.50
2023-01-17T18:37:06.516Z,2.50
2023-01-17T18:39:33.749Z,2.50
2023-01-17T18:42:01.119Z,2.50
2023-01-17T18:44:28.404Z,2.50
2023-01-17T18:46:55.899Z,2.50
2023-01-17T18:49:23.065Z,2.50
2023-01-17T18:51:51.479Z,2.40
2023-01-17T18:54:20.427Z,2.40
2023-01-17T18:56:48.211Z,2.40
2023-01-17T18:59:18.510Z,2.40
2023-01-17T19:01:46.494Z,2.40
2023-01-17T19:04:14.800Z,2.30
2023-01-17T19:06:44.601Z,2.30
2023-01-17T19:09:13.972Z,2.30
2023-01-17T19:11:43.153Z,2.30
2023-01-17T19:14:11.956Z,2.20
2023-01-17T19:16:41.308Z,2.20
2023-01-17T19:19:11.430Z,2.20
2023-01-17T19:21:39.041Z,2.10
2023-01-17T19:24:06.820Z,2.00
2023-01-17T19:26:34.381Z,1.90
2023-01-17T19:29:03.803Z,1.90
2023-01-17T19:31:32.847Z,1.80
2023-01-17T19:34:00.500Z,1.80
2023-01-17T19:36:33.968Z,1.80
2023-01-17T19:39:05.332Z,1.80
2023-01-17T19:41:35.729Z,1.80
2023-01-17T19:44:08.964Z,1.80
2023-01-17T19:46:37.105Z,1.80
2023-01-17T19:49:06.964Z,1.80
2023-01-17T19:51:35.970Z,1.80
2023-01-17T19:54:04.275Z,1.80
2023-01-17T19:56:31.501Z,1.90
2023-01-17T19:59:01.641Z,1.90
2023-01-17T20:01:32.340Z,1.90
2023-01-17T20:04:01.071Z,1.90
2023-01-17T20:06:31.252Z,2.00
2023-01-17T20:08:58.675Z,2.00
2023-01-17T20:11:27.948Z,2.00
2023-01-17T20:13:57.685Z,2.00
2023-01-17T20:16:27.688Z,2.00
2023-01-17T20:18:54.993Z,2.10
2023-01-17T20:21:24.804Z,2.10
2023-01-17T20:23:53.402Z,2.10
2023-01-17T20:26:29.766Z,2.10
2023-01-17T20:28:57.240Z,2.10
2023-01-17T20:31:25.555Z,2.20
2023-01-17T20:33:54.600Z,2.20
2023-01-17T20:36:24.777Z,2.20
2023-01-17T20:38:53.356Z,2.30
2023-01-17T20:41:32.148Z,2.40
2023-01-17T20:44:00.932Z,2.50
2023-01-17T20:46:35.690Z,2.50
2023-01-17T20:49:05.586Z,2.50
2023-01-17T20:51:38.535Z,2.50
2023-01-17T20:54:07.187Z,2.60
2023-01-17T20:56:38.751Z,2.60
2023-01-17T20:59:09.537Z,2.70
2023-01-17T21:01:38.365Z,2.70
2023-01-17T21:04:10.270Z,2.70
2023-01-17T21:06:40.036Z,2.70
2023-01-17T21:09:11.183Z,2.70
2023-01-17T21:11:38.622Z,2.70
2023-01-17T21:14:06.642Z,2.60
2023-01-17T21:16:35.154Z,2.60
2023-01-17T21:19:03.449Z,2.60
2023-01-17T21:21:30.616Z,2.50
2023-01-17T21:23:59.703Z,2.50
2023-01-17T21:26:28.608Z,2.50
2023-01-17T21:28:56.392Z,2.50
2023-01-17T21:31:29.936Z,2.50
2023-01-17T21:34:00.065Z,2.40
2023-01-17T21:36:29.688Z,2.30
2023-01-17T21:38:58.525Z,2.20
2023-01-17T21:41:31.345Z,2.10
2023-01-17T21:44:05.107Z,2.00
2023-01-17T21:46:32.393Z,1.80
2023-01-17T21:48:59.544Z,1.80
2023-01-17T21:51:46.653Z,1.70
2023-01-17T21:54:14.081Z,1.70
2023-01-17T21:56:59.664Z,1.60
2023-01-17T21:59:26.951Z,1.50
2023-01-17T22:01:54.080Z,1.50
2023-01-17T22:04:21.459Z,1.50
2023-01-17T22:06:50.260Z,1.60
2023-01-17T22:09:17.795Z,1.50
2023-01-17T22:11:45.020Z,1.50
2023-01-17T22:14:12.287Z,1.40
2023-01-17T22:16:39.623Z,1.40
2023-01-17T22:19:06.877Z,1.50
2023-01-17T22:21:34.349Z,1.60
2023-01-17T22:24:01.557Z,1.70
2023-01-17T22:26:31.057Z,1.70
2023-01-17T22:29:02.425Z,1.70
2023-01-17T22:31:30.417Z,1.80
2023-01-17T22:34:00.718Z,1.80
2023-01-17T22:36:28.689Z,1.80
2023-01-17T22:38:56.077Z,1.80
2023-01-17T22:41:25.389Z,1.90
2023-01-17T22:43:54.434Z,1.90
2023-01-17T22:46:24.921Z,2.00
2023-01-17T22:48:53.772Z,1.90
2023-01-17T22:51:22.999Z,2.00
2023-01-17T22:53:55.657Z,2.00
2023-01-17T22:56:26.570Z,2.00
2023-01-17T22:58:54.345Z,2.00
2023-01-17T23:01:24.466Z,2.10
2023-01-17T23:04:00.385Z,2.20
2023-01-17T23:06:36.361Z,2.10
2023-01-17T23:09:10.636Z,2.10
2023-01-17T23:11:44.062Z,2.10
2023-01-17T23:14:31.307Z,2.00
2023-01-17T23:17:19.913Z,2.00
2023-01-17T23:19:52.736Z,2.00
2023-01-17T23:22:30.494Z,2.00
2023-01-17T23:25:05.183Z,2.00
2023-01-17T23:27:59.929Z,1.80
2023-01-17T23:30:28.192Z,1.80
2023-01-17T23:33:01.248Z,1.80
2023-01-17T23:35:41.483Z,1.90
2023-01-17T23:38:33.908Z,2.10
2023-01-17T23:41:27.061Z,2.20
2023-01-17T23:43:58.468Z,2.20
2023-01-17T23:46:27.188Z,2.30
2023-01-17T23:48:55.298Z,2.30
2023-01-17T23:51:22.844Z,2.40
2023-01-17T23:53:53.594Z,2.40
2023-01-17T23:56:23.331Z,2.50
2023-01-17T23:58:50.762Z,2.50
